Time;durP1;ratioP1;P1;durP2;ratioP2;P2;SDS_P1;SDS_P2;PMS_P1;PMS_P2;Temp;Humidity;BMP_temperature;BMP_pressure;BME280_temperature;BME280_humidity;BME280_pressure;Samples;Min_cycle;Max_cycle;Signal;HPM_P1;HPM_P2
2023/12/30 00:01:48;;;;;;;11.05;1.60;;;9.30;99.90;;;;;;5006058;28;20037;-60
2023/12/30 00:04:14;;;;;;;10.30;1.58;;;9.30;99.90;;;;;;5005280;28;20030;-60
2023/12/30 00:06:40;;;;;;;14.20;2.03;;;9.40;99.90;;;;;;5006188;28;20534;-57
2023/12/30 00:09:06;;;;;;;9.95;1.33;;;9.40;99.90;;;;;;5009132;28;20215;-60
2023/12/30 00:11:32;;;;;;;11.57;2.03;;;9.50;99.90;;;;;;5004752;28;20022;-55
2023/12/30 00:13:57;;;;;;;11.25;1.90;;;9.40;99.90;;;;;;5008357;28;20046;-59
2023/12/30 00:16:23;;;;;;;9.45;1.58;;;9.50;99.90;;;;;;5005560;28;20034;-60
2023/12/30 00:18:48;;;;;;;7.47;1.67;;;9.40;99.90;;;;;;5007486;28;20095;-60
2023/12/30 00:21:20;;;;;;;15.00;1.92;;;9.40;99.90;;;;;;5000836;28;20035;-59
2023/12/30 00:23:46;;;;;;;13.07;2.00;;;9.40;99.90;;;;;;5003111;28;20124;-60
2023/12/30 00:26:23;;;;;;;13.40;1.42;;;9.50;99.90;;;;;;5002959;28;20114;-58
2023/12/30 00:28:49;;;;;;;12.43;1.38;;;9.50;99.90;;;;;;5002435;28;20053;-60
2023/12/30 00:31:21;;;;;;;15.65;1.88;;;9.50;99.90;;;;;;5007010;28;20041;-59
2023/12/30 00:33:46;;;;;;;18.52;2.20;;;9.60;99.90;;;;;;5009456;28;20057;-59
2023/12/30 00:36:12;;;;;;;11.15;2.72;;;9.60;99.90;;;;;;5010729;28;20072;-60
2023/12/30 00:38:37;;;;;;;19.02;2.50;;;9.50;99.90;;;;;;5010050;28;20033;-59
2023/12/30 00:41:03;;;;;;;9.15;2.92;;;9.60;99.90;;;;;;5012707;28;20092;-59
2023/12/30 00:43:29;;;;;;;30.80;2.90;;;9.60;99.90;;;;;;5008130;28;20038;-60
2023/12/30 00:45:54;;;;;;;10.00;1.75;;;9.70;99.90;;;;;;5012127;28;20092;-59
2023/12/30 00:48:20;;;;;;;13.20;2.22;;;9.70;99.90;;;;;;5009900;28;20685;-58
2023/12/30 00:50:46;;;;;;;18.65;2.47;;;9.60;99.90;;;;;;5010989;28;20036;-60
2023/12/30 00:53:11;;;;;;;14.32;2.65;;;9.60;99.90;;;;;;5007355;28;20036;-59
2023/12/30 00:55:37;;;;;;;17.42;2.38;;;9.60;99.90;;;;;;5005765;28;20034;-60
2023/12/30 00:58:02;;;;;;;18.42;2.13;;;9.70;99.90;;;;;;5010196;28;20064;-60
2023/12/30 01:00:28;;;;;;;19.23;2.35;;;9.70;99.90;;;;;;5010932;28;20030;-58
2023/12/30 01:02:53;;;;;;;16.05;2.42;;;9.70;99.90;;;;;;5011814;28;20033;-60
2023/12/30 01:05:19;;;;;;;13.80;2.25;;;9.70;99.90;;;;;;5008729;28;20037;-59
2023/12/30 01:07:45;;;;;;;15.35;2.55;;;9.80;99.90;;;;;;5009835;28;20018;-59
2023/12/30 01:10:10;;;;;;;16.13;1.77;;;9.80;99.90;;;;;;5007943;28;20033;-58
2023/12/30 01:12:36;;;;;;;14.75;2.63;;;9.80;99.90;;;;;;5008938;28;20041;-60
2023/12/30 01:15:02;;;;;;;16.65;2.58;;;9.80;99.90;;;;;;5010386;28;20106;-60
2023/12/30 01:17:28;;;;;;;15.68;2.50;;;9.80;99.90;;;;;;5009454;28;20022;-59
2023/12/30 01:19:53;;;;;;;17.85;2.13;;;9.80;99.90;;;;;;5010259;28;20399;-58
2023/12/30 01:22:19;;;;;;;14.65;2.00;;;9.80;99.90;;;;;;5005618;28;20050;-59
2023/12/30 01:24:44;;;;;;;16.58;1.90;;;9.80;99.90;;;;;;5010132;28;20571;-60
2023/12/30 01:27:09;;;;;;;16.08;2.10;;;9.80;99.90;;;;;;5009277;28;20113;-57
2023/12/30 01:29:35;;;;;;;22.15;2.25;;;9.80;99.90;;;;;;5007902;28;20041;-60
2023/12/30 01:32:00;;;;;;;22.50;3.00;;;9.80;99.90;;;;;;5009159;28;20044;-60
2023/12/30 01:34:26;;;;;;;14.65;2.10;;;9.80;99.90;;;;;;5009632;28;20535;-60
2023/12/30 01:36:51;;;;;;;17.38;2.88;;;9.70;99.90;;;;;;5009532;28;20026;-59
2023/12/30 01:39:17;;;;;;;19.58;2.15;;;9.70;99.90;;;;;;5008795;28;20022;-59
2023/12/30 01:41:43;;;;;;;17.20;2.33;;;9.70;99.90;;;;;;5010777;28;20121;-59
2023/12/30 01:44:08;;;;;;;12.68;2.55;;;9.70;99.90;;;;;;5009465;28;20026;-59
2023/12/30 01:46:34;;;;;;;20.35;1.98;;;9.60;99.90;;;;;;5006596;28;20030;-58
2023/12/30 01:48:59;;;;;;;11.93;1.60;;;9.60;99.90;;;;;;5007958;28;20492;-59
2023/12/30 01:51:25;;;;;;;12.80;1.67;;;9.60;99.90;;;;;;5007610;28;20087;-57
2023/12/30 01:53:52;;;;;;;10.93;2.28;;;9.60;99.90;;;;;;5005719;28;20496;-58
2023/12/30 01:56:17;;;;;;;15.77;2.10;;;9.60;99.90;;;;;;5009302;28;20112;-58
2023/12/30 01:58:43;;;;;;;18.50;1.92;;;9.60;99.90;;;;;;5009126;28;20117;-58
2023/12/30 02:01:10;;;;;;;15.23;2.25;;;9.70;99.90;;;;;;5010039;28;20087;-59
2023/12/30 02:03:36;;;;;;;18.70;2.10;;;9.80;99.90;;;;;;5005056;28;20038;-59
2023/12/30 02:06:01;;;;;;;8.27;1.40;;;9.80;99.90;;;;;;5008850;28;20484;-59
2023/12/30 02:08:27;;;;;;;17.45;1.92;;;9.90;99.90;;;;;;5009732;28;20081;-60
2023/12/30 02:10:53;;;;;;;30.65;2.03;;;9.80;99.90;;;;;;5009314;28;20033;-58
2023/12/30 02:13:18;;;;;;;17.33;2.28;;;9.80;99.90;;;;;;5007615;28;20022;-58
2023/12/30 02:15:44;;;;;;;18.35;2.30;;;9.80;99.90;;;;;;5004658;28;20450;-59
2023/12/30 02:18:09;;;;;;;16.98;1.88;;;9.80;99.90;;;;;;5008115;28;20030;-59
2023/12/30 02:20:35;;;;;;;20.33;2.35;;;9.90;99.90;;;;;;5007612;28;20025;-57
2023/12/30 02:23:00;;;;;;;11.05;1.90;;;9.90;99.90;;;;;;5007967;28;20372;-58
2023/12/30 02:25:26;;;;;;;10.30;2.00;;;9.90;99.90;;;;;;5007982;28;20500;-58
2023/12/30 02:27:51;;;;;;;11.10;1.63;;;9.90;99.90;;;;;;5009650;28;20033;-60
2023/12/30 02:30:17;;;;;;;20.48;2.80;;;9.90;99.90;;;;;;5008896;28;20037;-56
2023/12/30 02:32:42;;;;;;;13.35;2.35;;;9.80;99.90;;;;;;5010891;28;20427;-60
2023/12/30 02:35:08;;;;;;;23.63;2.30;;;9.70;99.90;;;;;;5008742;28;20029;-59
2023/12/30 02:37:33;;;;;;;12.00;2.88;;;9.70;99.90;;;;;;5005725;28;20084;-57
2023/12/30 02:39:59;;;;;;;13.07;1.80;;;9.70;99.90;;;;;;5009237;28;20038;-59
2023/12/30 02:42:25;;;;;;;18.00;4.80;;;9.70;99.90;;;;;;5007676;28;20038;-57
2023/12/30 02:44:51;;;;;;;15.05;2.50;;;9.70;99.90;;;;;;5006817;28;20361;-59
2023/12/30 02:47:17;;;;;;;15.70;2.25;;;9.70;99.90;;;;;;5006052;28;20022;-58
2023/12/30 02:49:44;;;;;;;17.33;1.80;;;9.70;99.90;;;;;;5008872;28;20030;-60
2023/12/30 02:52:09;;;;;;;18.77;1.73;;;9.70;99.90;;;;;;5010567;28;20591;-60
2023/12/30 02:54:35;;;;;;;14.25;1.88;;;9.60;99.90;;;;;;5007485;28;20054;-57
2023/12/30 02:57:02;;;;;;;11.13;2.63;;;9.60;99.90;;;;;;5007311;28;20109;-60
2023/12/30 02:59:28;;;;;;;15.18;2.28;;;9.60;99.90;;;;;;5006644;28;20033;-59
2023/12/30 03:01:54;;;;;;;14.85;1.95;;;9.60;99.90;;;;;;5006833;28;20087;-59
2023/12/30 03:04:19;;;;;;;19.02;2.90;;;9.60;99.90;;;;;;5010617;28;20113;-60
2023/12/30 03:06:45;;;;;;;13.38;1.77;;;9.60;99.90;;;;;;5010747;28;20462;-60
2023/12/30 03:09:11;;;;;;;8.20;1.67;;;9.60;99.90;;;;;;5008604;28;20022;-60
2023/12/30 03:11:37;;;;;;;15.57;1.83;;;9.60;99.90;;;;;;5007086;28;20044;-59
2023/12/30 03:14:03;;;;;;;19.58;2.47;;;9.70;99.90;;;;;;5006356;28;20018;-58
2023/12/30 03:16:28;;;;;;;14.23;2.80;;;9.70;99.90;;;;;;5007924;28;20037;-61
2023/12/30 03:18:55;;;;;;;13.00;2.97;;;9.70;99.90;;;;;;5008478;28;20053;-60
2023/12/30 03:21:20;;;;;;;19.65;1.73;;;9.70;99.90;;;;;;5010887;28;20143;-61
2023/12/30 03:23:46;;;;;;;13.55;1.25;;;9.80;99.90;;;;;;5008390;28;20030;-59
2023/12/30 03:26:12;;;;;;;9.00;1.70;;;9.70;99.90;;;;;;5011851;28;20389;-60
2023/12/30 03:28:37;;;;;;;19.10;2.90;;;9.70;99.90;;;;;;5013045;28;20034;-60
2023/12/30 03:31:03;;;;;;;13.48;2.13;;;9.70;99.90;;;;;;5012585;28;20109;-59
2023/12/30 03:33:29;;;;;;;12.98;1.70;;;9.70;99.90;;;;;;5016042;28;20435;-60
2023/12/30 03:35:54;;;;;;;16.27;2.00;;;9.70;99.90;;;;;;5016282;28;20041;-59
2023/12/30 03:38:21;;;;;;;16.48;2.17;;;9.70;99.90;;;;;;5010941;28;20101;-58
2023/12/30 03:40:46;;;;;;;11.80;1.65;;;9.70;99.90;;;;;;5008865;28;20034;-59
2023/12/30 03:43:13;;;;;;;9.00;1.35;;;9.70;99.90;;;;;;5005972;28;20026;-54
2023/12/30 03:45:38;;;;;;;20.85;2.05;;;9.70;99.90;;;;;;5008599;28;20044;-57
2023/12/30 03:48:05;;;;;;;15.13;2.08;;;9.70;99.90;;;;;;5007986;28;20026;-60
2023/12/30 03:50:30;;;;;;;15.57;2.17;;;9.70;99.90;;;;;;5005633;28;20404;-60
2023/12/30 03:52:56;;;;;;;20.05;2.40;;;9.70;99.90;;;;;;5008741;28;20049;-59
2023/12/30 03:55:21;;;;;;;15.52;1.92;;;9.70;99.90;;;;;;5009407;28;20022;-57
2023/12/30 03:57:47;;;;;;;19.02;2.33;;;9.70;99.90;;;;;;4989269;28;20030;-57
2023/12/30 04:00:13;;;;;;;13.15;2.03;;;9.70;99.90;;;;;;5008025;28;20021;-57
2023/12/30 04:02:40;;;;;;;18.65;2.22;;;9.70;99.90;;;;;;5000552;28;20030;-59
2023/12/30 04:05:06;;;;;;;19.13;2.42;;;9.70;99.90;;;;;;5004314;28;20056;-57
2023/12/30 04:07:32;;;;;;;12.32;2.03;;;9.60;99.90;;;;;;5003033;28;20080;-58
2023/12/30 04:09:57;;;;;;;17.88;2.13;;;9.60;99.90;;;;;;5002346;28;20856;-57
2023/12/30 04:12:23;;;;;;;11.05;1.85;;;9.60;99.90;;;;;;4998779;28;20523;-61
2023/12/30 04:14:49;;;;;;;15.50;2.70;;;9.50;99.90;;;;;;5001748;28;20403;-58
2023/12/30 04:17:15;;;;;;;15.85;1.90;;;9.50;99.90;;;;;;5001800;28;20107;-58
2023/12/30 04:19:40;;;;;;;17.00;1.67;;;9.50;99.90;;;;;;5003659;28;20030;-60
2023/12/30 04:22:06;;;;;;;11.02;1.85;;;9.30;99.90;;;;;;5002511;28;20049;-59
2023/12/30 04:24:31;;;;;;;16.25;1.90;;;9.40;99.90;;;;;;5002112;28;20030;-60
2023/12/30 04:26:57;;;;;;;20.00;2.08;;;9.40;99.90;;;;;;5001645;28;20029;-56
2023/12/30 04:29:22;;;;;;;15.60;2.28;;;9.30;99.90;;;;;;5002394;28;20041;-60
2023/12/30 04:31:48;;;;;;;14.80;1.80;;;9.40;99.90;;;;;;5002460;28;20094;-60
2023/12/30 04:34:14;;;;;;;12.98;1.75;;;9.30;99.90;;;;;;5001579;28;20034;-59
2023/12/30 04:36:40;;;;;;;11.70;2.58;;;9.30;99.90;;;;;;5001453;28;20124;-60
2023/12/30 04:39:05;;;;;;;16.83;2.70;;;9.30;99.90;;;;;;5001330;28;20034;-60
2023/12/30 04:41:31;;;;;;;27.15;2.10;;;9.30;99.90;;;;;;5001571;28;20030;-60
2023/12/30 04:43:57;;;;;;;10.45;2.25;;;9.20;99.90;;;;;;5002632;28;20112;-59
2023/12/30 04:46:22;;;;;;;17.27;2.08;;;9.20;99.90;;;;;;5002315;28;20480;-58
2023/12/30 04:48:52;;;;;;;18.42;2.08;;;9.30;99.90;;;;;;5002498;28;20040;-57
2023/12/30 04:51:18;;;;;;;28.20;3.03;;;9.30;99.90;;;;;;5001151;28;20030;-59
2023/12/30 04:53:43;;;;;;;15.52;2.42;;;9.40;99.90;;;;;;5001975;28;20483;-59
2023/12/30 04:56:15;;;;;;;14.40;2.97;;;9.40;99.90;;;;;;4984505;28;20111;-59
2023/12/30 04:58:40;;;;;;;20.42;3.08;;;9.40;99.90;;;;;;5004117;28;20065;-58
2023/12/30 05:01:06;;;;;;;17.42;2.78;;;9.40;99.90;;;;;;5005657;28;20033;-58
2023/12/30 05:03:34;;;;;;;14.20;1.98;;;9.40;99.90;;;;;;5007176;28;20029;-58
2023/12/30 05:06:00;;;;;;;20.52;2.05;;;9.50;99.90;;;;;;5008910;28;20022;-57
2023/12/30 05:08:25;;;;;;;22.15;2.35;;;9.50;99.90;;;;;;5008755;28;20592;-60
2023/12/30 05:10:51;;;;;;;10.52;1.75;;;9.50;99.90;;;;;;5006496;28;20022;-61
2023/12/30 05:13:16;;;;;;;20.13;2.55;;;9.50;99.90;;;;;;5004461;28;20641;-61
2023/12/30 05:15:42;;;;;;;12.93;2.85;;;9.50;99.90;;;;;;5007481;28;20053;-59
2023/12/30 05:18:08;;;;;;;12.50;2.60;;;9.40;99.90;;;;;;5008377;28;20396;-58
2023/12/30 05:20:34;;;;;;;26.45;2.97;;;9.40;99.90;;;;;;5010866;28;20107;-59
2023/12/30 05:23:00;;;;;;;12.35;2.88;;;9.40;99.90;;;;;;5010873;28;20030;-58
2023/12/30 05:25:25;;;;;;;14.02;1.98;;;9.40;99.90;;;;;;4995287;28;20022;-59
2023/12/30 05:27:51;;;;;;;14.85;2.33;;;9.30;99.90;;;;;;5011867;28;20476;-58
2023/12/30 05:30:16;;;;;;;15.82;1.77;;;9.30;99.90;;;;;;5009814;28;20037;-58
2023/12/30 05:32:42;;;;;;;17.30;3.17;;;9.30;99.90;;;;;;5010944;28;21858;-59
2023/12/30 05:35:09;;;;;;;22.42;2.25;;;9.40;99.90;;;;;;5012220;28;20049;-59
2023/12/30 05:37:34;;;;;;;13.13;2.55;;;9.40;99.90;;;;;;5011033;28;20117;-57
2023/12/30 05:40:00;;;;;;;12.88;1.63;;;9.40;99.90;;;;;;5012935;28;20539;-59
2023/12/30 05:42:25;;;;;;;18.48;2.00;;;9.40;99.90;;;;;;5007821;28;20034;-61
2023/12/30 05:44:51;;;;;;;14.80;2.40;;;9.40;99.90;;;;;;5010744;28;20026;-61
2023/12/30 05:47:16;;;;;;;17.80;2.50;;;9.40;99.90;;;;;;5009963;28;20369;-61
2023/12/30 05:49:42;;;;;;;17.40;2.55;;;9.40;99.90;;;;;;5011160;28;20030;-60
2023/12/30 05:52:08;;;;;;;15.40;2.42;;;9.40;99.90;;;;;;5010006;28;20033;-57
2023/12/30 05:54:34;;;;;;;13.23;2.03;;;9.40;99.90;;;;;;5009885;28;20029;-60
2023/12/30 05:57:02;;;;;;;14.27;2.25;;;9.40;99.90;;;;;;5011970;28;20145;-60
2023/12/30 05:59:28;;;;;;;19.73;2.28;;;9.40;99.90;;;;;;5011319;28;20498;-60
2023/12/30 06:01:53;;;;;;;18.35;1.90;;;9.30;99.90;;;;;;5008614;28;20104;-57
2023/12/30 06:04:19;;;;;;;30.10;3.40;;;9.30;99.90;;;;;;5010949;28;20112;-59
2023/12/30 06:06:45;;;;;;;12.57;3.35;;;9.40;99.90;;;;;;5011072;28;20027;-60
2023/12/30 06:09:11;;;;;;;19.40;2.75;;;9.40;99.90;;;;;;5009662;28;20026;-59
2023/12/30 06:11:36;;;;;;;12.57;2.00;;;9.40;99.90;;;;;;5009494;28;20711;-59
2023/12/30 06:14:03;;;;;;;10.30;1.77;;;9.40;99.90;;;;;;5010647;28;20034;-59
2023/12/30 06:16:28;;;;;;;30.08;3.05;;;9.50;99.90;;;;;;5009152;28;20026;-59
2023/12/30 06:18:54;;;;;;;14.65;1.88;;;9.50;99.90;;;;;;5011236;28;20030;-60
2023/12/30 06:21:19;;;;;;;21.63;2.70;;;9.50;99.90;;;;;;5010418;28;20034;-59
2023/12/30 06:23:45;;;;;;;16.08;2.03;;;9.40;99.90;;;;;;5009866;28;20038;-58
2023/12/30 06:26:10;;;;;;;14.25;2.00;;;9.40;99.90;;;;;;5010495;28;20014;-61
2023/12/30 06:28:36;;;;;;;15.13;2.15;;;9.40;99.90;;;;;;5010471;28;20045;-58
2023/12/30 06:31:01;;;;;;;8.70;1.70;;;9.40;99.90;;;;;;5010298;28;20050;-60
2023/12/30 06:33:27;;;;;;;18.23;2.20;;;9.40;99.90;;;;;;5007948;28;20018;-57
2023/12/30 06:35:53;;;;;;;18.48;2.72;;;9.50;99.90;;;;;;4992379;28;20495;-60
2023/12/30 06:38:18;;;;;;;15.65;1.92;;;9.40;99.90;;;;;;5010837;28;20484;-60
2023/12/30 06:40:47;;;;;;;11.35;2.05;;;9.40;99.90;;;;;;5010503;28;20140;-58
2023/12/30 06:43:13;;;;;;;20.48;1.98;;;9.40;99.90;;;;;;5010664;28;20039;-59
2023/12/30 06:45:38;;;;;;;21.58;2.05;;;9.40;99.90;;;;;;5010351;28;20040;-59
2023/12/30 06:48:04;;;;;;;17.17;2.55;;;9.40;99.90;;;;;;5010581;28;20112;-60
2023/12/30 06:50:30;;;;;;;15.70;2.60;;;9.30;99.90;;;;;;5010286;28;20026;-59
2023/12/30 06:52:56;;;;;;;19.02;2.78;;;9.40;99.90;;;;;;5010092;28;20030;-58
2023/12/30 06:55:22;;;;;;;10.65;2.45;;;9.40;99.90;;;;;;5010277;28;20026;-58
2023/12/30 06:57:48;;;;;;;18.08;2.22;;;9.40;99.90;;;;;;5010218;28;20101;-57
2023/12/30 07:00:14;;;;;;;13.80;1.92;;;9.40;99.90;;;;;;5009572;28;20427;-58
2023/12/30 07:02:41;;;;;;;10.35;1.80;;;9.40;99.90;;;;;;4989077;28;20026;-59
2023/12/30 07:05:10;;;;;;;17.15;1.95;;;9.40;99.90;;;;;;5009704;28;20033;-60
2023/12/30 07:07:36;;;;;;;18.95;2.22;;;9.40;99.90;;;;;;5007727;28;20033;-60
2023/12/30 07:10:04;;;;;;;23.70;2.55;;;9.40;99.90;;;;;;5010207;28;20080;-58
2023/12/30 07:12:29;;;;;;;21.15;1.73;;;9.30;99.90;;;;;;5009523;28;20148;-60
2023/12/30 07:14:55;;;;;;;17.10;2.05;;;9.30;99.90;;;;;;5010341;28;20109;-59
2023/12/30 07:17:20;;;;;;;12.07;2.22;;;9.40;99.90;;;;;;5010638;28;20061;-59
2023/12/30 07:19:46;;;;;;;12.38;1.60;;;9.40;99.90;;;;;;5010541;28;20462;-59
2023/12/30 07:22:12;;;;;;;21.00;2.40;;;9.50;99.90;;;;;;5013864;28;20030;-59
2023/12/30 07:24:38;;;;;;;25.48;2.03;;;9.50;99.90;;;;;;5011136;28;20087;-60
2023/12/30 07:27:04;;;;;;;9.40;1.98;;;9.50;99.90;;;;;;5011500;28;20018;-59
2023/12/30 07:29:30;;;;;;;13.60;1.83;;;9.50;99.90;;;;;;5011107;28;20026;-56
2023/12/30 07:31:56;;;;;;;5.70;1.38;;;9.50;99.90;;;;;;5009897;28;20025;-58
2023/12/30 07:34:21;;;;;;;13.27;1.80;;;9.50;99.90;;;;;;5008940;28;20034;-59
2023/12/30 07:36:48;;;;;;;6.55;1.48;;;9.50;99.90;;;;;;5009448;28;20164;-60
2023/12/30 07:39:13;;;;;;;9.95;1.83;;;9.50;99.90;;;;;;5004439;28;20029;-59
2023/12/30 07:41:39;;;;;;;14.50;1.58;;;9.50;99.90;;;;;;5004237;28;20026;-57
2023/12/30 07:44:04;;;;;;;14.88;3.17;;;9.50;99.90;;;;;;5000049;28;20113;-59
2023/12/30 07:46:30;;;;;;;18.38;2.38;;;9.50;99.90;;;;;;5006519;28;20064;-61
2023/12/30 07:48:55;;;;;;;8.43;1.85;;;9.50;99.90;;;;;;5003074;28;20033;-59
2023/12/30 07:51:21;;;;;;;10.15;1.48;;;9.50;99.90;;;;;;5005479;28;20817;-59
2023/12/30 07:53:47;;;;;;;12.30;1.50;;;9.40;99.90;;;;;;4997891;28;20041;-59
2023/12/30 07:56:12;;;;;;;15.73;1.50;;;9.40;99.90;;;;;;5009322;28;20093;-59
2023/12/30 07:58:39;;;;;;;11.57;1.50;;;9.40;99.90;;;;;;5001827;28;20404;-57
2023/12/30 08:01:05;;;;;;;14.68;1.42;;;9.40;99.90;;;;;;5003810;28;20053;-59
2023/12/30 08:03:31;;;;;;;14.38;2.38;;;9.40;99.90;;;;;;5003816;28;20030;-57
2023/12/30 08:05:56;;;;;;;10.93;1.77;;;9.40;99.90;;;;;;5006261;28;20018;-57
2023/12/30 08:08:22;;;;;;;11.48;1.85;;;9.40;99.90;;;;;;5001979;28;20037;-59
2023/12/30 08:10:48;;;;;;;11.93;1.75;;;9.30;99.90;;;;;;5006710;28;20022;-56
2023/12/30 08:13:13;;;;;;;11.35;1.70;;;9.30;99.90;;;;;;4998869;28;20037;-59
2023/12/30 08:15:39;;;;;;;13.55;1.85;;;9.30;99.90;;;;;;5008963;28;20514;-58
2023/12/30 08:18:04;;;;;;;6.90;1.50;;;9.30;99.90;;;;;;5007360;28;20030;-55
2023/12/30 08:20:30;;;;;;;13.70;1.98;;;9.30;99.90;;;;;;5008335;28;20037;-57
2023/12/30 08:22:56;;;;;;;16.98;1.75;;;9.40;99.90;;;;;;5008050;28;20643;-59
2023/12/30 08:25:21;;;;;;;24.38;3.03;;;9.40;99.90;;;;;;5004169;28;20031;-60
2023/12/30 08:27:47;;;;;;;9.38;1.90;;;9.40;99.90;;;;;;5004112;28;20026;-56
2023/12/30 08:30:13;;;;;;;11.30;2.70;;;9.40;99.90;;;;;;5008837;28;20026;-60
2023/12/30 08:32:38;;;;;;;16.77;2.10;;;9.40;99.90;;;;;;5004341;28;20017;-60
2023/12/30 08:35:07;;;;;;;13.05;2.53;;;9.40;99.90;;;;;;5002568;28;20109;-58
2023/12/30 08:37:33;;;;;;;24.88;2.35;;;9.50;99.90;;;;;;5009205;28;20021;-54
2023/12/30 08:39:58;;;;;;;20.27;2.10;;;9.50;99.90;;;;;;5008037;28;20112;-57
2023/12/30 08:42:24;;;;;;;12.50;2.28;;;9.50;99.90;;;;;;5005839;28;20022;-57
2023/12/30 08:44:50;;;;;;;15.48;2.47;;;9.50;99.90;;;;;;5001016;28;20038;-57
2023/12/30 08:47:15;;;;;;;13.93;2.72;;;9.60;99.90;;;;;;5003778;28;20022;-57
2023/12/30 08:49:42;;;;;;;21.77;2.47;;;9.60;99.90;;;;;;5006824;28;20030;-58
2023/12/30 08:52:07;;;;;;;21.73;2.40;;;9.60;99.90;;;;;;5005617;28;20485;-56
2023/12/30 08:54:33;;;;;;;17.58;2.25;;;9.60;99.90;;;;;;4993895;28;20041;-60
2023/12/30 08:56:58;;;;;;;16.90;3.95;;;9.70;99.90;;;;;;5010434;28;20033;-58
2023/12/30 08:59:24;;;;;;;11.80;2.58;;;9.70;99.90;;;;;;5010222;28;20032;-58
2023/12/30 09:01:51;;;;;;;18.10;2.63;;;9.70;99.90;;;;;;5011380;28;20104;-61
2023/12/30 09:04:16;;;;;;;21.77;3.53;;;9.70;99.90;;;;;;5005959;28;20065;-58
2023/12/30 09:06:42;;;;;;;17.65;2.70;;;9.80;99.90;;;;;;5011807;28;20449;-59
2023/12/30 09:09:07;;;;;;;27.25;3.25;;;9.80;99.90;;;;;;5013648;28;20057;-57
2023/12/30 09:11:37;;;;;;;27.33;3.35;;;9.80;99.90;;;;;;5012344;28;20397;-55
2023/12/30 09:14:04;;;;;;;26.70;2.88;;;9.80;99.90;;;;;;5008148;28;20017;-57
2023/12/30 09:16:29;;;;;;;15.30;3.22;;;9.80;99.90;;;;;;5008845;28;20026;-59
2023/12/30 09:18:55;;;;;;;22.05;3.35;;;9.80;99.90;;;;;;5007391;28;20034;-59
2023/12/30 09:21:21;;;;;;;15.73;4.07;;;9.90;99.90;;;;;;4998389;28;20443;-62
2023/12/30 09:23:46;;;;;;;18.05;3.25;;;9.90;99.90;;;;;;5013112;28;20080;-56
2023/12/30 09:26:16;;;;;;;15.18;2.95;;;9.90;99.90;;;;;;5012557;28;20080;-57
2023/12/30 09:28:41;;;;;;;25.42;2.88;;;9.90;99.90;;;;;;5012710;28;20045;-56
2023/12/30 09:31:07;;;;;;;17.35;2.13;;;10.00;99.90;;;;;;5009792;28;20049;-59
2023/12/30 09:33:32;;;;;;;16.50;2.40;;;9.90;99.90;;;;;;5009250;28;20497;-55
2023/12/30 09:35:58;;;;;;;19.10;3.13;;;10.00;99.90;;;;;;5010999;28;20108;-58
2023/12/30 09:38:24;;;;;;;19.45;2.90;;;10.10;99.90;;;;;;5013624;28;20511;-59
2023/12/30 09:40:54;;;;;;;17.10;2.45;;;10.10;99.90;;;;;;4986275;28;20045;-55
2023/12/30 09:43:27;;;;;;;17.75;2.10;;;10.10;99.90;;;;;;5002972;28;20133;-58
2023/12/30 09:45:55;;;;;;;11.43;2.58;;;10.10;99.90;;;;;;5005725;28;20404;-58
2023/12/30 09:48:26;;;;;;;9.93;1.73;;;10.20;99.90;;;;;;4992001;28;20033;-59
2023/12/30 09:50:53;;;;;;;18.42;2.92;;;10.20;99.90;;;;;;5008535;28;20018;-58
2023/12/30 09:53:22;;;;;;;19.77;2.03;;;10.20;99.90;;;;;;5006391;28;20503;-60
2023/12/30 09:55:48;;;;;;;7.13;1.67;;;10.30;99.90;;;;;;4991644;28;20053;-58
2023/12/30 09:58:14;;;;;;;11.38;1.90;;;10.30;99.90;;;;;;5002846;28;20030;-58
2023/12/30 10:00:42;;;;;;;14.32;2.28;;;10.30;99.90;;;;;;5008324;28;20532;-57
2023/12/30 10:03:08;;;;;;;14.63;1.90;;;10.30;99.90;;;;;;5009185;28;20091;-58
2023/12/30 10:05:34;;;;;;;9.40;1.83;;;10.30;99.90;;;;;;5002429;28;20030;-56
2023/12/30 10:08:03;;;;;;;17.67;2.25;;;10.40;99.90;;;;;;5005029;28;20053;-56
2023/12/30 10:10:43;;;;;;;16.55;2.40;;;10.40;99.90;;;;;;5011022;28;20030;-59
2023/12/30 10:13:12;;;;;;;16.17;2.75;;;10.40;99.90;;;;;;5010175;28;20045;-58
2023/12/30 10:15:39;;;;;;;16.20;2.60;;;10.40;99.90;;;;;;5006210;28;20069;-58
2023/12/30 10:18:07;;;;;;;13.93;2.65;;;10.40;99.90;;;;;;5009622;28;20034;-55
2023/12/30 10:20:35;;;;;;;20.77;2.10;;;10.40;99.90;;;;;;5006063;28;20120;-58
2023/12/30 10:23:00;;;;;;;24.50;2.38;;;10.40;99.90;;;;;;5007946;28;20030;-59
2023/12/30 10:25:26;;;;;;;12.35;1.70;;;10.40;99.90;;;;;;5003482;28;20100;-58
2023/12/30 10:27:51;;;;;;;12.65;1.77;;;10.40;99.90;;;;;;5003691;28;20040;-59
2023/12/30 10:30:20;;;;;;;13.98;1.90;;;10.40;99.90;;;;;;5002841;28;20030;-57
2023/12/30 10:32:47;;;;;;;14.80;2.40;;;10.50;99.90;;;;;;5000136;28;20484;-60
2023/12/30 10:35:16;;;;;;;18.88;2.13;;;10.50;99.90;;;;;;5002735;28;20512;-58
2023/12/30 10:37:42;;;;;;;13.32;1.95;;;10.60;99.90;;;;;;5001867;28;20129;-57
2023/12/30 10:40:09;;;;;;;15.52;1.50;;;10.60;99.90;;;;;;5003972;28;20030;-58
2023/12/30 10:42:36;;;;;;;12.07;1.63;;;10.70;99.90;;;;;;4999839;28;20029;-59
2023/12/30 10:45:02;;;;;;;10.30;1.38;;;10.80;99.90;;;;;;4997871;28;20023;-58
2023/12/30 10:47:30;;;;;;;11.82;2.63;;;10.80;99.90;;;;;;5008656;28;20033;-59
2023/12/30 10:50:04;;;;;;;16.17;2.30;;;10.90;99.90;;;;;;5004459;28;20033;-61
2023/12/30 10:52:31;;;;;;;13.27;4.47;;;11.00;99.90;;;;;;5002358;28;20503;-59
2023/12/30 10:55:12;;;;;;;12.63;2.35;;;11.00;99.90;;;;;;5006543;28;20037;-60
2023/12/30 10:57:51;;;;;;;14.05;2.78;;;11.10;99.90;;;;;;5004885;28;20033;-55
2023/12/30 11:00:22;;;;;;;15.45;2.50;;;11.30;99.90;;;;;;5008932;28;20034;-58
2023/12/30 11:02:48;;;;;;;13.88;2.28;;;11.40;99.90;;;;;;5002719;28;20038;-58
2023/12/30 11:05:27;;;;;;;21.80;2.60;;;11.60;99.90;;;;;;5001745;28;20123;-59
2023/12/30 11:07:52;;;;;;;23.38;3.38;;;11.60;99.90;;;;;;5003513;28;20392;-59
2023/12/30 11:10:20;;;;;;;7.35;1.88;;;11.60;99.90;;;;;;5008099;28;20036;-60
2023/12/30 11:12:46;;;;;;;12.65;2.13;;;11.50;99.90;;;;;;5005371;28;20037;-58
2023/12/30 11:15:29;;;;;;;13.82;1.92;;;11.60;99.90;;;;;;5005101;28;20396;-57
2023/12/30 11:17:59;;;;;;;11.75;2.13;;;11.70;99.90;;;;;;5008044;28;20033;-59
2023/12/30 11:20:27;;;;;;;7.78;1.88;;;11.80;99.90;;;;;;5007652;28;20377;-59
2023/12/30 11:22:54;;;;;;;14.85;2.13;;;11.90;99.90;;;;;;4999026;28;20036;-58
2023/12/30 11:25:20;;;;;;;14.88;1.90;;;12.00;99.90;;;;;;5005735;28;20109;-59
2023/12/30 11:27:48;;;;;;;9.45;1.83;;;12.10;99.90;;;;;;4999677;28;20400;-58
2023/12/30 11:30:23;;;;;;;10.82;1.70;;;12.20;99.90;;;;;;4998182;28;20014;-61
2023/12/30 11:32:50;;;;;;;16.15;1.90;;;12.20;99.90;;;;;;5008596;28;20503;-59
2023/12/30 11:35:16;;;;;;;13.20;1.77;;;12.20;99.90;;;;;;5007886;28;20026;-59
2023/12/30 11:37:44;;;;;;;15.38;1.85;;;12.20;99.90;;;;;;5006622;28;20052;-58
2023/12/30 11:40:13;;;;;;;7.93;1.60;;;12.30;99.90;;;;;;5001774;28;20648;-60
2023/12/30 11:42:39;;;;;;;15.18;2.22;;;12.40;99.90;;;;;;5000486;28;20034;-57
2023/12/30 11:45:05;;;;;;;10.20;1.60;;;12.40;99.90;;;;;;5002138;28;20100;-58
2023/12/30 11:47:31;;;;;;;16.90;2.47;;;12.40;99.90;;;;;;5006405;28;20080;-59
2023/12/30 11:50:04;;;;;;;15.15;1.80;;;12.20;99.90;;;;;;5000076;28;20061;-56
2023/12/30 11:52:29;;;;;;;21.35;2.38;;;12.10;99.90;;;;;;5009485;28;20037;-60
2023/12/30 11:54:55;;;;;;;8.30;1.92;;;12.20;99.90;;;;;;5005070;28;20029;-57
2023/12/30 11:57:20;;;;;;;8.68;1.70;;;12.30;99.90;;;;;;5004794;28;20022;-60
2023/12/30 11:59:46;;;;;;;16.75;2.35;;;12.30;99.90;;;;;;5012873;28;20304;-60
2023/12/30 12:02:12;;;;;;;16.00;2.03;;;12.50;99.90;;;;;;5019540;28;20385;-60
2023/12/30 12:04:38;;;;;;;9.05;2.13;;;12.60;99.90;;;;;;5021441;28;20085;-61
2023/12/30 12:07:04;;;;;;;8.32;1.73;;;12.50;99.90;;;;;;5026382;28;20393;-59
2023/12/30 12:09:29;;;;;;;7.57;1.23;;;12.50;99.90;;;;;;5019300;28;20676;-61
2023/12/30 12:11:55;;;;;;;13.23;1.65;;;12.60;99.90;;;;;;5013280;28;20609;-59
2023/12/30 12:14:20;;;;;;;10.77;1.70;;;12.70;99.90;;;;;;5001867;28;20037;-57
2023/12/30 12:16:46;;;;;;;8.30;1.70;;;12.60;99.90;;;;;;5003838;28;20037;-58
2023/12/30 12:19:13;;;;;;;7.05;1.70;;;12.60;99.90;;;;;;5002567;28;20097;-59
2023/12/30 12:21:39;;;;;;;7.80;1.65;;;12.50;99.90;;;;;;5007829;28;20041;-59
2023/12/30 12:24:05;;;;;;;12.07;1.70;;;12.40;99.90;;;;;;5003276;28;20058;-58
2023/12/30 12:26:31;;;;;;;11.27;1.73;;;12.50;99.90;;;;;;5002334;28;20022;-59
2023/12/30 12:28:58;;;;;;;16.45;1.77;;;12.60;99.90;;;;;;5009572;28;20713;-59
2023/12/30 12:31:29;;;;;;;6.15;1.67;;;12.60;99.90;;;;;;5013776;28;20033;-63
2023/12/30 12:33:55;;;;;;;12.77;2.42;;;12.70;99.90;;;;;;5005017;28;20018;-59
2023/12/30 12:36:20;;;;;;;10.52;1.63;;;12.60;99.90;;;;;;5008809;28;20030;-57
2023/12/30 12:38:47;;;;;;;12.30;2.55;;;12.80;99.90;;;;;;5006741;28;20579;-56
2023/12/30 12:41:13;;;;;;;10.30;1.83;;;12.90;99.90;;;;;;5010820;28;20480;-62